Time;durP1;ratioP1;P1;durP2;ratioP2;P2;SDS_P1;SDS_P2;PMS_P1;PMS_P2;Temp;Humidity;BMP_temperature;BMP_pressure;BME280_temperature;BME280_humidity;BME280_pressure;Samples;Min_cycle;Max_cycle;Signal;HPM_P1;HPM_P2
2021/12/04 00:00:44;;;;;;;21.42;12.23;;;;;;;1.34;76.63;100031.73;1731489;81;21116;-79
2021/12/04 00:03:06;;;;;;;19.07;11.18;;;;;;;1.33;76.63;100027.34;1701400;83;21081;-79
2021/12/04 00:05:32;;;;;;;20.57;12.78;;;;;;;1.35;76.67;100029.60;1731804;82;22578;-79
2021/12/04 00:07:59;;;;;;;22.10;13.53;;;;;;;1.33;76.64;100028.26;1700906;84;21117;-79
2021/12/04 00:10:30;;;;;;;24.67;13.75;;;;;;;1.32;76.56;100029.47;1731494;82;21121;-79
2021/12/04 00:12:57;;;;;;;22.13;12.82;;;;;;;1.30;76.54;100025.50;1702280;83;21101;-79
2021/12/04 00:15:24;;;;;;;18.65;12.28;;;;;;;1.28;76.58;100015.88;1731575;82;21619;-80
2021/12/04 00:17:50;;;;;;;19.75;11.97;;;;;;;1.26;76.61;100014.50;1702354;83;22538;-78
2021/12/04 00:20:17;;;;;;;24.15;13.30;;;;;;;1.23;76.52;100008.27;1731606;82;21077;-79
2021/12/04 00:22:44;;;;;;;19.00;11.85;;;;;;;1.18;76.53;100000.23;1702366;84;21551;-80
2021/12/04 00:25:10;;;;;;;29.30;16.95;;;;;;;1.15;76.50;99998.81;1731787;81;21117;-79
2021/12/04 00:27:40;;;;;;;28.77;16.27;;;;;;;1.12;76.57;99998.23;1702193;83;21124;-80
2021/12/04 00:30:09;;;;;;;23.02;12.10;;;;;;;1.11;76.59;99999.06;1697064;84;21975;-80
2021/12/04 00:32:40;;;;;;;35.68;19.07;;;;;;;1.08;76.53;99995.42;1675553;84;21058;-80
2021/12/04 00:35:18;;;;;;;26.75;15.48;;;;;;;1.00;76.53;99994.16;1697060;84;21097;-79
2021/12/04 00:49:07;;;;;;;39.38;21.00;;;;;;;0.99;76.83;100004.02;1697355;84;22261;-80
2021/12/04 00:50:54;;;;;;;38.08;19.15;;;;;;;1.05;76.94;100009.50;1694015;84;21073;-79
2021/12/04 00:53:21;;;;;;;37.58;19.23;;;;;;;1.11;76.99;100007.25;1697057;84;21069;-79
2021/12/04 00:55:48;;;;;;;22.67;13.72;;;;;;;1.12;76.93;100008.59;1697352;84;21744;-79
2021/12/04 00:58:14;;;;;;;31.15;16.80;;;;;;;1.12;76.81;100012.90;1697227;84;21176;-79
2021/12/04 01:00:41;;;;;;;27.30;16.45;;;;;;;1.12;76.80;100005.12;1697248;84;21667;-79
2021/12/04 01:03:08;;;;;;;23.18;13.18;;;;;;;1.09;76.74;100001.06;1697337;84;21153;-79
2021/12/04 01:05:35;;;;;;;19.10;12.75;;;;;;;1.07;76.72;100000.11;1697652;84;21583;-79
2021/12/04 01:08:01;;;;;;;21.07;13.25;;;;;;;1.06;76.76;99992.74;1697456;84;21735;-79
2021/12/04 01:10:28;;;;;;;20.40;12.18;;;;;;;1.05;76.74;99987.48;1697502;84;21562;-79
2021/12/04 01:13:00;;;;;;;21.25;12.90;;;;;;;1.03;76.77;99980.03;1697538;84;21136;-79
2021/12/04 01:15:23;;;;;;;21.30;12.20;;;;;;;1.01;76.74;99985.13;1696913;84;21165;-79
2021/12/04 01:17:49;;;;;;;21.00;12.18;;;;;;;1.00;76.78;99983.79;1697082;84;21069;-79
2021/12/04 01:20:16;;;;;;;19.57;11.57;;;;;;;0.96;76.73;99975.84;1696920;84;22602;-79
2021/12/04 01:22:43;;;;;;;22.98;12.15;;;;;;;0.94;76.75;99969.70;1697483;84;21002;-79
2021/12/04 01:25:09;;;;;;;20.23;11.75;;;;;;;0.96;76.86;99972.38;1697555;84;21064;-79
2021/12/04 01:27:37;;;;;;;21.60;12.55;;;;;;;1.00;76.89;99969.53;1697325;84;21529;-79
2021/12/04 01:30:08;;;;;;;24.32;12.75;;;;;;;1.00;76.80;99966.94;1707225;83;21041;-79
2021/12/04 01:32:35;;;;;;;21.40;12.65;;;;;;;0.99;76.76;99963.85;1708570;83;21978;-80
2021/12/04 01:35:01;;;;;;;21.80;13.35;;;;;;;1.01;76.88;99969.59;1708603;83;21601;-80
2021/12/04 01:37:28;;;;;;;24.87;13.00;;;;;;;1.01;76.84;99964.41;1708813;83;21057;-80
2021/12/04 01:39:54;;;;;;;23.05;12.50;;;;;;;1.02;76.84;99964.90;1708684;83;21057;-80
2021/12/04 01:42:22;;;;;;;18.45;11.22;;;;;;;1.05;76.89;99958.59;1708673;83;21080;-80
2021/12/04 01:44:49;;;;;;;19.50;12.10;;;;;;;1.08;76.78;99957.84;1708890;83;22611;-80
2021/12/04 01:47:21;;;;;;;20.48;12.13;;;;;;;1.10;76.81;99959.68;1708641;83;21060;-80
2021/12/04 01:49:49;;;;;;;22.77;12.63;;;;;;;1.11;76.72;99954.12;1708689;83;21056;-80
2021/12/04 01:52:19;;;;;;;21.75;13.05;;;;;;;1.11;76.68;99948.52;1708713;83;21639;-80
2021/12/04 01:54:46;;;;;;;21.07;12.63;;;;;;;1.12;76.68;99939.03;1708857;83;21532;-80
2021/12/04 01:57:16;;;;;;;22.35;13.48;;;;;;;1.11;76.63;99936.85;1708718;83;21748;-79
2021/12/04 01:59:43;;;;;;;22.77;13.13;;;;;;;1.12;76.60;99929.95;1708659;83;22329;-78
2021/12/04 02:02:10;;;;;;;20.60;12.60;;;;;;;1.09;76.59;99927.20;1708824;83;21076;-80
2021/12/04 02:04:37;;;;;;;27.90;13.90;;;;;;;1.08;76.61;99927.62;1708786;83;21577;-81
2021/12/04 02:07:04;;;;;;;20.10;13.30;;;;;;;1.08;76.61;99917.67;1708955;83;21171;-81
2021/12/04 02:09:32;;;;;;;20.82;11.03;;;;;;;1.08;76.66;99918.55;1708950;83;21768;-81
2021/12/04 02:11:59;;;;;;;23.10;13.03;;;;;;;1.04;76.62;99918.34;1708877;83;21100;-81
2021/12/04 02:14:25;;;;;;;25.95;13.08;;;;;;;1.02;76.69;99913.07;1708780;83;21107;-80
2021/12/04 02:16:52;;;;;;;19.85;12.70;;;;;;;1.00;76.71;99906.05;1708928;83;21108;-80
2021/12/04 02:19:18;;;;;;;23.57;14.00;;;;;;;0.98;76.74;99907.26;1708944;83;21107;-81
2021/12/04 02:21:45;;;;;;;21.30;13.08;;;;;;;0.99;76.74;99910.73;1708765;83;22599;-81
2021/12/04 02:24:12;;;;;;;26.62;13.68;;;;;;;0.99;76.77;99908.14;1708804;83;21092;-81
2021/12/04 02:26:39;;;;;;;20.08;12.53;;;;;;;0.97;76.82;99907.64;1708862;83;21068;-81
2021/12/04 02:29:05;;;;;;;23.15;12.47;;;;;;;0.96;76.76;99901.99;1708667;83;21068;-80
2021/12/04 02:31:32;;;;;;;18.32;11.70;;;;;;;0.95;76.83;99900.62;1708646;82;21044;-81
2021/12/04 02:33:59;;;;;;;19.15;12.05;;;;;;;0.97;76.89;99898.57;1708678;83;21821;-81
2021/12/04 02:36:26;;;;;;;19.30;11.95;;;;;;;1.01;76.91;99898.32;1708973;83;21116;-81
2021/12/04 02:38:53;;;;;;;18.10;11.38;;;;;;;1.04;76.94;99895.01;1708920;83;21673;-81
2021/12/04 02:41:20;;;;;;;20.77;11.43;;;;;;;1.06;76.91;99894.67;1708965;83;21084;-81
2021/12/04 02:43:47;;;;;;;19.32;11.33;;;;;;;1.10;76.91;99891.41;1709092;83;21143;-81
2021/12/04 02:46:18;;;;;;;20.85;11.28;;;;;;;1.12;76.84;99891.95;1708868;83;21844;-80
2021/12/04 02:48:45;;;;;;;22.77;13.45;;;;;;;1.15;76.79;99884.77;1708164;83;21109;-80
2021/12/04 02:51:11;;;;;;;19.30;11.18;;;;;;;1.16;76.72;99882.25;1708741;83;21092;-80
2021/12/04 02:53:38;;;;;;;17.02;11.33;;;;;;;1.16;76.65;99875.77;1708873;83;21054;-80
2021/12/04 02:56:05;;;;;;;20.60;10.75;;;;;;;1.16;76.61;99871.87;1708754;83;21577;-80
2021/12/04 02:58:33;;;;;;;19.73;11.38;;;;;;;1.16;76.51;99861.89;1708784;83;21762;-80
2021/12/04 03:01:03;;;;;;;17.27;10.30;;;;;;;1.18;76.54;99868.45;1708631;83;21076;-80
2021/12/04 03:03:31;;;;;;;14.47;10.18;;;;;;;1.16;76.43;99865.41;1708420;83;21698;-79
2021/12/04 03:05:58;;;;;;;17.32;9.95;;;;;;;1.17;76.50;99866.28;1708589;83;21045;-80
2021/12/04 03:08:25;;;;;;;19.23;10.90;;;;;;;1.17;76.45;99858.50;1708732;83;21068;-80
2021/12/04 03:10:54;;;;;;;16.82;10.78;;;;;;;1.20;76.42;99855.16;1708443;83;21802;-80
2021/12/04 03:13:22;;;;;;;17.90;10.90;;;;;;;1.20;76.38;99846.97;1708752;83;21048;-80
2021/12/04 03:15:56;;;;;;;16.17;10.48;;;;;;;1.20;76.39;99846.09;1708903;83;21076;-80
2021/12/04 03:18:17;;;;;;;20.65;10.68;;;;;;;1.19;76.26;99836.55;1708049;83;21152;-80
2021/12/04 03:20:45;;;;;;;19.55;11.57;;;;;;;1.17;76.26;99836.47;1708916;83;21721;-80
2021/12/04 03:23:26;;;;;;;17.62;10.65;;;;;;;1.17;76.30;99836.47;1708748;83;21833;-79
2021/12/04 03:25:49;;;;;;;20.55;11.18;;;;;;;1.20;76.38;99831.41;1683863;83;21092;-80
2021/12/04 03:28:16;;;;;;;17.73;10.60;;;;;;;1.24;76.34;99838.93;1708438;83;21766;-79
2021/12/04 03:30:51;;;;;;;20.50;9.80;;;;;;;1.23;76.23;99846.24;1708562;83;21029;-80
2021/12/04 03:41:08;;;;;;;17.60;11.10;;;;;;;1.26;76.09;99843.78;1708676;83;21084;-79
2021/12/04 03:43:35;;;;;;;19.12;10.60;;;;;;;1.25;76.11;99837.71;1708721;83;21068;-79
2021/12/04 03:46:03;;;;;;;16.45;9.80;;;;;;;1.25;76.09;99845.91;1708842;83;21591;-79
2021/12/04 03:51:00;;;;;;;18.32;10.65;;;;;;;1.26;76.16;99842.48;1708710;83;21666;-79
2021/12/04 03:53:26;;;;;;;17.70;10.38;;;;;;;1.29;76.17;99838.75;1708619;83;21108;-78
2021/12/04 03:55:53;;;;;;;21.15;10.95;;;;;;;1.31;76.09;99831.55;1708885;83;21132;-78
2021/12/04 03:58:20;;;;;;;17.02;10.70;;;;;;;1.29;75.97;99838.75;1708819;83;21558;-79
2021/12/04 04:00:46;;;;;;;17.07;10.40;;;;;;;1.28;75.96;99830.09;1708959;83;21694;-81
2021/12/04 04:03:15;;;;;;;16.35;10.82;;;;;;;1.28;75.95;99825.33;1681474;83;21060;-80
2021/12/04 04:05:42;;;;;;;17.92;10.38;;;;;;;1.26;75.94;99816.17;1708716;83;21072;-79
2021/12/04 04:08:11;;;;;;;17.50;10.43;;;;;;;1.29;75.94;99825.37;1708731;83;21107;-79
2021/12/04 04:10:37;;;;;;;18.85;11.93;;;;;;;1.27;75.87;99816.63;1708661;83;21076;-80
2021/12/04 04:13:07;;;;;;;15.95;10.75;;;;;;;1.26;75.92;99821.36;1708627;83;21801;-80
2021/12/04 04:15:32;;;;;;;19.77;11.28;;;;;;;1.26;75.94;99812.28;1708236;83;21100;-80
2021/12/04 04:17:59;;;;;;;17.45;10.85;;;;;;;1.28;75.95;99808.47;1708557;83;21088;-79
2021/12/04 04:20:25;;;;;;;17.52;11.57;;;;;;;1.28;75.94;99808.05;1708419;83;21156;-79
2021/12/04 04:22:52;;;;;;;20.65;12.20;;;;;;;1.28;75.96;99801.98;1708548;83;21140;-80
2021/12/04 04:25:18;;;;;;;18.55;11.22;;;;;;;1.29;75.97;99807.64;1708557;83;22572;-78
2021/12/04 04:27:45;;;;;;;17.77;11.10;;;;;;;1.28;75.95;99804.17;1708376;83;21093;-79
2021/12/04 04:30:15;;;;;;;18.02;10.65;;;;;;;1.26;75.98;99808.78;1708388;82;21615;-79
2021/12/04 04:32:42;;;;;;;19.55;10.82;;;;;;;1.27;75.98;99802.37;1708364;83;21084;-77
2021/12/04 04:35:17;;;;;;;19.55;10.85;;;;;;;1.28;76.00;99805.88;1708353;83;21084;-78
2021/12/04 04:57:21;;;;;;;18.65;11.80;;;;;;;1.30;76.04;99806.42;1708452;83;21144;-77
2021/12/04 04:59:22;;;;;;;16.35;11.43;;;;;;;1.33;76.23;99801.77;1708382;83;21472;-77
2021/12/04 05:02:16;;;;;;;17.17;11.12;;;;;;;1.35;76.28;99796.25;1680942;83;21084;-78
2021/12/04 05:13:03;;;;;;;28.32;16.82;;;;;;;1.35;76.26;99792.36;1708684;83;21189;-78
2021/12/04 05:15:14;;;;;;;26.23;16.40;;;;;;;1.34;76.36;99785.00;1701047;83;21085;-80
2021/12/04 05:17:55;;;;;;;22.80;13.53;;;;;;;1.33;76.25;99785.83;1708317;83;22612;-78
2021/12/04 05:20:14;;;;;;;17.65;11.97;;;;;;;1.32;76.31;99784.04;1706389;83;21086;-79
2021/12/04 05:22:40;;;;;;;16.93;11.45;;;;;;;1.33;76.34;99787.52;1708643;83;21562;-77
2021/12/04 05:25:10;;;;;;;16.73;11.78;;;;;;;1.32;76.32;99789.64;1708800;83;21135;-79
2021/12/04 05:27:37;;;;;;;18.82;12.30;;;;;;;1.35;76.42;99793.27;1708778;83;21115;-81
2021/12/04 05:30:06;;;;;;;16.70;11.63;;;;;;;1.38;76.46;99792.52;1708460;82;22564;-80
2021/12/04 05:32:33;;;;;;;18.57;11.97;;;;;;;1.42;76.45;99793.13;1708369;83;21279;-80
2021/12/04 05:34:59;;;;;;;18.77;12.45;;;;;;;1.36;76.42;99780.77;1708765;83;21084;-80
2021/12/04 05:37:26;;;;;;;15.72;11.25;;;;;;;1.46;76.38;99800.22;1703517;82;21077;-80
2021/12/04 05:39:53;;;;;;;18.80;12.03;;;;;;;1.48;76.37;99797.32;1737467;81;21470;-80
2021/12/04 05:42:20;;;;;;;17.65;11.73;;;;;;;1.48;76.31;99799.91;1737988;82;21817;-81
2021/12/04 05:44:46;;;;;;;19.23;12.80;;;;;;;1.49;76.32;99806.86;1737387;82;21054;-80
2021/12/04 05:47:20;;;;;;;18.57;12.45;;;;;;;1.50;76.34;99801.25;1737677;82;21631;-80
2021/12/04 05:52:33;;;;;;;18.57;13.25;;;;;;;1.48;76.28;99801.21;1738076;81;21144;-81
2021/12/04 05:55:10;;;;;;;19.30;12.95;;;;;;;1.46;76.30;99800.64;1735566;82;21798;-81
2021/12/04 05:57:16;;;;;;;19.65;12.93;;;;;;;1.44;76.34;99795.80;1743340;81;21058;-79
2021/12/04 05:59:43;;;;;;;17.77;12.82;;;;;;;1.45;76.37;99796.29;1766341;81;21109;-79
2021/12/04 06:02:12;;;;;;;19.30;12.73;;;;;;;1.43;76.33;99795.33;1753427;81;21046;-79
2021/12/04 06:04:41;;;;;;;18.60;12.37;;;;;;;1.42;76.39;99793.13;1736950;82;21088;-81
2021/12/04 06:07:07;;;;;;;19.05;13.40;;;;;;;1.41;76.41;99793.96;1737252;82;21795;-80
2021/12/04 06:09:35;;;;;;;20.72;12.98;;;;;;;1.42;76.47;99795.72;1736342;82;21093;-80
2021/12/04 06:12:05;;;;;;;18.40;13.32;;;;;;;1.46;76.57;99793.73;1736570;82;21120;-80
2021/12/04 06:14:34;;;;;;;20.05;12.63;;;;;;;1.48;76.48;99791.22;1725182;81;21080;-80
2021/12/04 06:17:01;;;;;;;19.30;11.90;;;;;;;1.46;76.48;99791.14;1708311;82;21044;-80
2021/12/04 06:22:38;;;;;;;19.77;13.60;;;;;;;1.52;76.50;99782.38;1707933;83;21072;-79
2021/12/04 06:25:12;;;;;;;17.77;12.63;;;;;;;1.53;76.47;99781.95;1708487;83;21590;-80
2021/12/04 06:27:39;;;;;;;;;;;;;;;1.47;76.39;99790.34;1710079;83;21085;-79
2021/12/04 06:30:08;;;;;;;20.65;12.13;;;;;;;1.41;76.50;99782.68;1706365;82;20226;-79
2021/12/04 06:32:36;;;;;;;17.95;12.68;;;;;;;1.46;76.52;99795.45;1697223;84;21821;-80
2021/12/04 06:35:08;;;;;;;21.00;12.13;;;;;;;1.44;76.55;99794.50;1697073;84;21579;-79
2021/12/04 06:37:39;;;;;;;17.85;10.98;;;;;;;1.44;76.63;99795.80;1696974;84;21345;-80
2021/12/04 06:40:06;;;;;;;17.95;12.80;;;;;;;1.46;76.68;99797.63;1697061;84;21097;-80
2021/12/04 06:42:34;;;;;;;15.23;11.68;;;;;;;1.48;76.70;99796.02;1697419;84;21108;-80
2021/12/04 06:45:05;;;;;;;18.20;12.58;;;;;;;1.49;76.72;99798.20;1697167;84;21877;-80
2021/12/04 06:47:32;;;;;;;20.48;12.93;;;;;;;1.51;76.81;99803.92;1697395;84;21558;-80
2021/12/04 06:50:10;;;;;;;20.50;12.78;;;;;;;1.54;76.81;99813.16;1697256;84;21096;-80
2021/12/04 06:52:36;;;;;;;20.68;13.40;;;;;;;1.54;76.76;99815.75;1696837;84;21096;-80
2021/12/04 06:55:04;;;;;;;15.03;11.90;;;;;;;1.58;76.86;99817.16;1695822;84;21088;-80
2021/12/04 06:57:37;;;;;;;19.15;13.18;;;;;;;1.57;76.77;99814.98;1674703;84;21754;-79
2021/12/04 07:00:01;;;;;;;20.45;13.15;;;;;;;1.55;76.87;99814.91;1697010;84;21065;-79
2021/12/04 07:02:30;;;;;;;23.12;13.00;;;;;;;1.58;76.96;99820.67;1673784;84;21560;-79
2021/12/04 07:04:57;;;;;;;16.57;13.43;;;;;;;1.61;76.95;99823.38;1696939;84;21049;-80
2021/12/04 07:07:24;;;;;;;17.40;12.80;;;;;;;1.62;76.93;99825.17;1697227;84;21367;-79
2021/12/04 07:09:53;;;;;;;21.30;13.48;;;;;;;1.62;76.97;99820.41;1697030;84;21827;-79
2021/12/04 07:12:20;;;;;;;22.77;14.23;;;;;;;1.55;77.05;99803.23;1697088;84;21076;-79
2021/12/04 07:14:50;;;;;;;19.73;13.70;;;;;;;1.69;77.15;99818.54;1697163;84;21551;-80
2021/12/04 07:17:17;;;;;;;18.60;13.25;;;;;;;1.74;77.20;99815.75;1697020;84;21057;-80
2021/12/04 07:19:45;;;;;;;20.82;13.05;;;;;;;1.78;77.15;99812.47;1696789;84;21087;-79
2021/12/04 07:22:12;;;;;;;18.75;13.70;;;;;;;1.80;77.05;99816.44;1697863;84;21778;-80
2021/12/04 07:24:39;;;;;;;24.65;15.00;;;;;;;1.81;77.04;99816.93;1698534;84;21073;-83
2021/12/04 07:27:06;;;;;;;20.90;14.30;;;;;;;1.85;77.12;99822.31;1698612;84;21061;-84
2021/12/04 07:29:33;;;;;;;24.07;14.10;;;;;;;1.89;77.07;99824.64;1698287;84;21080;-87
2021/12/04 07:31:59;;;;;;;17.98;13.15;;;;;;;1.90;76.97;99822.53;1707539;83;21364;-86
2021/12/04 07:34:26;;;;;;;20.50;14.40;;;;;;;1.92;76.93;99822.19;1709838;83;21812;-81
2021/12/04 07:36:53;;;;;;;18.15;13.75;;;;;;;1.90;76.96;99814.75;1681857;83;21585;-80
2021/12/04 07:39:19;;;;;;;20.27;14.03;;;;;;;1.93;76.99;99819.67;1709566;83;21065;-80
2021/12/04 07:41:46;;;;;;;17.25;14.40;;;;;;;1.94;76.92;99815.36;1708645;83;21575;-80
2021/12/04 07:44:13;;;;;;;20.65;13.75;;;;;;;1.94;76.92;99819.25;1708523;83;21123;-81
2021/12/04 07:46:40;;;;;;;17.92;13.62;;;;;;;1.96;76.98;99814.14;1708671;82;21746;-80
2021/12/04 07:49:06;;;;;;;19.37;14.13;;;;;;;1.98;76.98;99813.79;1708661;83;21597;-80
2021/12/04 07:51:33;;;;;;;20.60;14.15;;;;;;;1.97;76.91;99815.89;1708665;83;21080;-80
2021/12/04 07:54:00;;;;;;;18.73;12.85;;;;;;;1.96;76.90;99816.31;1708477;83;21603;-80
2021/12/04 07:56:29;;;;;;;17.90;13.53;;;;;;;1.97;76.99;99810.70;1708819;83;21064;-80
2021/12/04 07:58:58;;;;;;;15.50;11.78;;;;;;;2.02;77.04;99813.09;1708224;83;22711;-80
2021/12/04 08:01:26;;;;;;;17.52;13.35;;;;;;;2.03;76.99;99813.59;1682187;83;21064;-80
2021/12/04 08:03:53;;;;;;;22.20;14.18;;;;;;;2.06;77.00;99811.98;1708972;82;21061;-80
2021/12/04 08:06:20;;;;;;;18.52;14.07;;;;;;;2.10;77.04;99815.22;1708989;83;21093;-80
2021/12/04 08:08:47;;;;;;;21.50;15.53;;;;;;;2.12;77.01;99813.97;1708997;83;20982;-80
2021/12/04 08:11:17;;;;;;;21.97;17.55;;;;;;;2.12;77.02;99816.17;1708797;83;21786;-80
2021/12/04 08:13:43;;;;;;;22.80;17.70;;;;;;;2.15;77.04;99810.22;1708137;83;21558;-80
2021/12/04 08:16:10;;;;;;;22.77;16.87;;;;;;;2.17;77.00;99811.59;1708939;83;21076;-79
2021/12/04 08:18:36;;;;;;;27.15;19.85;;;;;;;2.18;77.06;99806.47;1708861;82;21131;-80
2021/12/04 08:21:08;;;;;;;38.58;25.80;;;;;;;2.17;76.87;99814.18;1709032;83;21079;-84
2021/12/04 08:23:32;;;;;;;32.33;20.90;;;;;;;2.14;77.03;99813.23;1707982;83;22696;-84
2021/12/04 08:25:58;;;;;;;24.15;15.78;;;;;;;2.19;77.16;99814.71;1709014;83;21701;-85
2021/12/04 08:28:25;;;;;;;25.25;16.97;;;;;;;2.26;77.18;99819.35;1708788;83;21103;-80
2021/12/04 08:30:53;;;;;;;22.32;15.80;;;;;;;2.33;77.21;99820.52;1708716;83;21141;-80
2021/12/04 08:33:19;;;;;;;26.10;15.68;;;;;;;2.36;77.11;99815.44;1682161;83;21100;-80
2021/12/04 08:35:46;;;;;;;19.82;15.13;;;;;;;2.33;76.95;99821.40;1707720;83;22305;-80
2021/12/04 08:38:13;;;;;;;24.27;17.23;;;;;;;2.28;76.84;99825.50;1708651;83;21028;-86
2021/12/04 08:40:43;;;;;;;24.32;17.20;;;;;;;2.23;76.91;99819.63;1709067;83;21054;-85
2021/12/04 08:43:12;;;;;;;25.90;18.65;;;;;;;2.23;77.03;99827.00;1682936;83;21105;-84
2021/12/04 08:45:39;;;;;;;25.27;16.20;;;;;;;2.24;77.11;99826.20;1709009;83;21025;-86
2021/12/04 08:48:07;;;;;;;22.27;15.83;;;;;;;2.26;77.11;99827.14;1708950;83;21876;-85
2021/12/04 08:50:36;;;;;;;20.20;15.20;;;;;;;2.29;77.19;99827.29;1709068;83;21032;-86
2021/12/04 08:53:03;;;;;;;20.37;15.28;;;;;;;2.34;77.15;99837.44;1709238;83;21064;-82
2021/12/04 08:55:37;;;;;;;19.98;14.90;;;;;;;2.34;77.16;99832.25;1682739;83;21112;-84
2021/12/04 08:58:04;;;;;;;19.90;15.15;;;;;;;2.37;77.17;99838.00;1708853;83;21057;-84
2021/12/04 09:00:54;;;;;;;18.45;14.55;;;;;;;2.41;77.28;99841.63;1714837;81;22373;-83
2021/12/04 09:03:26;;;;;;;19.05;14.05;;;;;;;2.43;77.18;99836.95;1737924;81;21064;-85
2021/12/04 09:05:56;;;;;;;21.33;15.50;;;;;;;2.43;77.18;99837.38;1738884;81;21049;-84
2021/12/04 09:08:23;;;;;;;18.40;14.90;;;;;;;2.44;77.20;99834.86;1737794;82;21128;-84
2021/12/04 09:10:49;;;;;;;18.70;14.30;;;;;;;2.19;77.18;99790.05;1738346;81;21064;-83
2021/12/04 09:13:16;;;;;;;18.32;14.15;;;;;;;2.47;77.32;99837.56;1737944;81;21747;-84
2021/12/04 09:15:43;;;;;;;20.10;14.43;;;;;;;2.52;77.34;99838.66;1737763;81;21032;-83
2021/12/04 09:18:10;;;;;;;21.25;14.93;;;;;;;2.56;77.32;99828.41;1738044;81;21064;-83
2021/12/04 09:20:39;;;;;;;17.80;14.38;;;;;;;2.59;77.24;99829.42;1737497;82;21550;-83
2021/12/04 09:23:10;;;;;;;21.77;15.55;;;;;;;2.62;77.32;99833.42;1738693;81;21152;-83
2021/12/04 09:25:46;;;;;;;20.95;15.72;;;;;;;2.68;77.41;99830.20;1739662;82;21506;-86
2021/12/04 09:28:38;;;;;;;27.77;19.73;;;;;;;2.78;77.46;99823.66;1739630;82;21088;-84
2021/12/04 10:19:30;;;;;;;19.23;14.10;;;;;;;3.71;76.69;99825.16;1749141;81;22376;-83
2021/12/04 10:22:21;;;;;;;22.77;19.50;;;;;;;3.74;76.43;99828.31;1740391;81;21065;-83
2021/12/04 10:33:19;;;;;;;17.55;14.38;;;;;;;3.83;76.34;99826.94;1734241;81;22469;-83
2021/12/04 10:35:47;;;;;;;17.45;13.10;;;;;;;3.87;76.42;99822.31;1733696;81;21056;-82
2021/12/04 10:38:26;;;;;;;18.57;13.05;;;;;;;3.95;76.35;99825.19;1733958;81;21069;-83
2021/12/04 10:40:53;;;;;;;15.98;12.50;;;;;;;3.96;76.15;99820.86;1734173;82;21069;-83
2021/12/04 10:43:25;;;;;;;17.45;13.18;;;;;;;3.96;76.15;99820.47;1734094;82;21116;-83
2021/12/04 10:45:56;;;;;;;19.65;14.95;;;;;;;3.94;76.04;99824.73;1733365;81;21766;-84
2021/12/04 10:48:27;;;;;;;20.85;14.95;;;;;;;3.92;75.98;99828.09;1733074;82;21057;-84
2021/12/04 10:53:50;;;;;;;22.95;17.35;;;;;;;3.92;76.03;99835.91;1738518;81;21061;-82
2021/12/04 11:02:08;;;;;;;22.77;17.60;;;;;;;3.66;76.04;99825.00;1734021;82;21117;-83
2021/12/04 11:04:46;;;;;;;27.62;22.20;;;;;;;3.63;76.17;99828.78;1732954;81;21575;-84
2021/12/04 11:18:42;;;;;;;20.02;15.98;;;;;;;3.65;76.35;99831.02;1714821;82;21838;-83
2021/12/04 11:38:21;;;;;;;16.73;13.62;;;;;;;3.82;76.43;99833.38;1648138;85;21228;-79
2021/12/04 11:43:47;;;;;;;19.95;13.30;;;;;;;3.78;76.39;99834.10;1648328;85;21087;-80
2021/12/04 11:46:18;;;;;;;15.80;13.05;;;;;;;3.84;76.87;99843.02;1631127;86;21108;-86
2021/12/04 11:49:00;;;;;;;16.45;12.90;;;;;;;3.92;76.95;99841.98;1648440;85;21630;-86
2021/12/04 11:51:24;;;;;;;19.00;15.18;;;;;;;3.92;76.51;99844.59;1647992;85;21673;-81
2021/12/04 11:53:52;;;;;;;16.82;13.58;;;;;;;3.87;76.38;99840.53;1648989;85;22604;-78
2021/12/04 11:56:27;;;;;;;18.25;14.10;;;;;;;3.88;76.31;99836.20;1626285;86;21131;-80
2021/12/04 11:58:58;;;;;;;17.62;13.85;;;;;;;3.89;76.26;99840.59;1648605;85;21234;-79
2021/12/04 12:01:34;;;;;;;19.07;14.83;;;;;;;3.91;76.33;99822.44;1718916;81;21489;-79
2021/12/04 12:04:08;;;;;;;19.00;13.45;;;;;;;4.00;76.28;99833.19;1759198;80;21115;-79
2021/12/04 12:06:44;;;;;;;15.93;12.07;;;;;;;4.04;76.17;99833.34;1731706;82;21781;-79
2021/12/04 12:09:17;;;;;;;17.67;12.37;;;;;;;4.07;76.15;99829.95;1727732;81;21072;-79
2021/12/04 12:11:53;;;;;;;20.60;15.50;;;;;;;4.10;76.04;99826.16;1729777;82;21105;-79
2021/12/04 12:14:37;;;;;;;16.82;12.47;;;;;;;4.06;75.88;99831.67;1729603;82;21527;-78
2021/12/04 12:17:03;;;;;;;18.40;13.25;;;;;;;4.00;75.79;99828.86;1748136;80;21126;-79
2021/12/04 12:19:40;;;;;;;21.07;15.28;;;;;;;3.91;75.76;99828.52;1735217;81;21112;-80
2021/12/04 12:22:33;;;;;;;26.23;17.23;;;;;;;3.86;75.85;99830.94;1736313;82;21197;-79
2021/12/04 12:27:31;;;;;;;21.95;15.70;;;;;;;3.80;75.88;99826.81;1735679;82;21129;-79
2021/12/04 12:36:17;;;;;;;17.30;11.78;;;;;;;3.71;76.17;99831.67;1722837;83;21582;-78
2021/12/04 12:38:52;;;;;;;24.12;17.37;;;;;;;3.71;76.13;99844.69;1720760;82;21069;-81
2021/12/04 12:41:42;;;;;;;19.95;14.98;;;;;;;3.69;76.12;99841.14;1723859;83;21105;-78
2021/12/04 12:44:29;;;;;;;17.67;13.85;;;;;;;3.67;76.07;99838.47;1723023;83;21105;-78
2021/12/04 12:47:02;;;;;;;25.60;18.55;;;;;;;3.60;75.99;99840.78;1723310;83;21805;-79
2021/12/04 12:49:41;;;;;;;20.20;15.23;;;;;;;3.53;75.95;99840.07;1723457;83;21393;-80
2021/12/04 12:52:21;;;;;;;65.95;47.65;;;;;;;3.47;76.09;99841.63;1723880;83;21061;-80
2021/12/04 12:55:04;;;;;;;122.53;89.03;;;;;;;3.45;76.23;99844.98;1723180;83;21125;-79
2021/12/04 12:57:39;;;;;;;50.12;35.75;;;;;;;3.43;76.27;99844.04;1723620;83;21752;-78
2021/12/04 13:12:15;;;;;;;15.38;11.30;;;;;;;3.34;76.32;99846.28;1723505;83;21666;-77
2021/12/04 13:14:49;;;;;;;14.83;11.05;;;;;;;3.31;76.38;99849.23;1698870;83;21058;-77
2021/12/04 13:17:22;;;;;;;15.98;13.40;;;;;;;3.28;76.40;99855.64;1718826;83;21069;-77
2021/12/04 13:19:52;;;;;;;;;;;;;;;3.28;76.52;99846.92;1759186;80;21116;-77
2021/12/04 13:22:25;;;;;;;17.10;13.35;;;;;;;3.31;76.65;99841.43;1757613;81;20754;-77
2021/12/04 13:24:54;;;;;;;22.42;18.85;;;;;;;3.33;76.61;99835.42;1754400;81;21095;-77
2021/12/04 13:29:53;;;;;;;18.10;12.13;;;;;;;3.37;76.74;99837.30;1720887;83;21070;-77
2021/12/04 13:32:37;;;;;;;18.92;12.58;;;;;;;3.39;76.73;99843.03;1723147;82;21144;-77
2021/12/04 13:35:19;;;;;;;22.62;12.60;;;;;;;3.42;76.68;99843.16;1735212;82;21635;-77
2021/12/04 13:37:51;;;;;;;16.70;11.48;;;;;;;3.43;76.63;99846.22;1735600;81;21094;-77
2021/12/04 13:40:19;;;;;;;17.95;12.43;;;;;;;3.43;76.60;99844.92;1735898;82;21742;-77
2021/12/04 13:42:48;;;;;;;18.07;13.62;;;;;;;3.43;76.60;99837.53;1736344;81;21092;-77
2021/12/04 13:45:18;;;;;;;16.05;12.88;;;;;;;3.40;76.58;99844.82;1736445;82;21803;-78
2021/12/04 13:47:57;;;;;;;20.40;14.85;;;;;;;3.41;76.56;99845.27;1736427;82;21100;-77
2021/12/04 13:52:53;;;;;;;16.85;12.58;;;;;;;3.38;76.60;99844.27;1736060;82;22260;-82
2021/12/04 13:55:20;;;;;;;17.15;12.60;;;;;;;3.38;76.63;99845.56;1758546;80;21249;-83
2021/12/04 13:57:48;;;;;;;17.30;11.63;;;;;;;3.39;76.68;99847.35;1767138;80;21532;-81
2021/12/04 14:00:15;;;;;;;19.15;12.65;;;;;;;3.39;76.75;99849.53;1746433;81;21622;-82
2021/12/04 14:02:42;;;;;;;20.00;13.48;;;;;;;3.41;76.70;99852.20;1735090;82;21081;-78
2021/12/04 14:05:18;;;;;;;22.22;14.78;;;;;;;3.40;76.65;99859.55;1734508;82;21739;-78
2021/12/04 14:07:53;;;;;;;25.37;15.03;;;;;;;3.34;76.62;99859.28;1745896;81;21070;-78
2021/12/04 14:10:24;;;;;;;18.02;13.20;;;;;;;3.30;76.61;99851.38;1773021;80;21680;-78
2021/12/04 14:12:50;;;;;;;19.05;13.68;;;;;;;3.31;76.81;99862.24;1758035;80;21075;-78
2021/12/04 14:15:19;;;;;;;23.02;14.47;;;;;;;3.26;76.70;99867.66;1754226;81;21062;-78
2021/12/04 14:17:48;;;;;;;20.48;14.63;;;;;;;3.23;76.65;99872.77;1754802;81;21764;-78
2021/12/04 14:20:21;;;;;;;18.98;13.08;;;;;;;3.23;76.77;99877.05;1754850;81;21065;-78
2021/12/04 14:22:51;;;;;;;23.55;16.45;;;;;;;3.21;76.67;99870.91;1755121;81;21077;-78
2021/12/04 14:25:19;;;;;;;28.98;19.35;;;;;;;3.15;76.76;99865.05;1754611;80;21073;-78
2021/12/04 14:27:46;;;;;;;21.37;14.95;;;;;;;3.13;76.71;99864.09;1754909;81;21050;-78
2021/12/04 14:30:25;;;;;;;34.60;28.05;;;;;;;3.11;76.79;99867.05;1754764;81;22425;-78